DW5640 Weather Reports


Display with metric or nautical units.
time (UTC)temp
F
wind
direction
speed
MPH
gust
MPH
rain 1hr
in
rain 24hr
in
rain mn
in
humidity
%
barometer
mb
20200710191422 81 278 9.0 16.0 0.00 0.31 0.04 63 1012.6
20200710190937 81 284 9.0 15.0 0.00 0.31 0.04 64 1012.6
20200710190428 81 287 8.0 15.0 0.00 0.31 0.04 65 1012.6
20200710185927 81 290 9.0 20.0 0.00 0.31 0.04 63 1012.7
20200710185418 81 269 10.0 20.0 0.00 0.31 0.04 63 1012.8
20200710184937 81 284 9.0 14.0 0.00 0.31 0.04 67 1012.8
20200710184433 81 285 8.0 14.0 0.00 0.31 0.04 66 1012.7
20200710183927 81 279 9.0 16.0 0.00 0.31 0.04 63 1012.7
20200710183439 82 258 11.0 16.0 0.00 0.31 0.04 64 1012.7
20200710182932 82 267 9.0 14.0 0.00 0.31 0.04 66 1012.7
20200710182423 81 274 9.0 14.0 0.00 0.31 0.04 66 1012.6
20200710181937 81 262 10.0 14.0 0.00 0.31 0.04 66 1012.7
20200710181432 81 258 8.0 16.0 0.00 0.31 0.04 65 1012.5
20200710180930 81 257 9.0 16.0 0.00 0.31 0.04 65 1012.5
20200710180433 81 5 8.0 16.0 0.00 0.31 0.04 64 1012.3
20200710175933 81 302 10.0 16.0 0.00 0.31 0.04 64 1012.4
20200710175423 81 308 8.0 13.0 0.00 0.31 0.04 66 1012.4
20200710174938 81 304 7.0 14.0 0.00 0.31 0.04 66 1012.4
20200710174428 81 294 6.0 15.0 0.00 0.31 0.04 66 1012.4
20200710173924 81 300 9.0 15.0 0.00 0.31 0.04 67 1012.5
20200710173419 80 273 8.0 16.0 0.00 0.31 0.04 67 1012.5
20200710172918 81 300 10.0 16.0 0.00 0.31 0.04 65 1012.5
20200710172430 80 270 9.0 17.0 0.00 0.31 0.04 67 1012.4
20200710171927 80 271 10.0 18.0 0.00 0.31 0.04 65 1012.2
20200710171437 80 307 9.0 15.0 0.00 0.31 0.04 66 1012.2
20200710170933 80 284 9.0 15.0 0.00 0.31 0.04 66 1012.2
20200710170426 81 306 8.0 14.0 0.00 0.31 0.04 70 1012.3
20200710165941 80 271 7.0 15.0 0.00 0.31 0.04 72 1012.3
20200710165430 80 273 11.0 17.0 0.00 0.31 0.04 67 1012.1
20200710164926 80 288 11.0 17.0 0.00 0.31 0.04 67 1012.1
20200710164439 80 288 8.0 14.0 0.00 0.31 0.04 68 1012.0
20200710163934 80 298 8.0 15.0 0.00 0.31 0.04 70 1012.1
20200710163425 80 252 8.0 15.0 0.00 0.31 0.04 71 1012.1
20200710162921 79 298 10.0 15.0 0.00 0.31 0.04 68 1012.2
20200710162432 79 277 9.0 16.0 0.00 0.31 0.04 69 1012.1
20200710161928 79 288 10.0 16.0 0.00 0.31 0.04 69 1012.1
20200710161439 79 277 9.0 15.0 0.00 0.31 0.04 70 1012.1
20200710160935 79 265 10.0 15.0 0.00 0.31 0.04 69 1012.0
20200710160426 79 302 10.0 18.0 0.00 0.31 0.04 70 1012.0
20200710155922 79 261 11.0 18.0 0.00 0.31 0.04 69 1012.0
20200710155421 79 266 11.0 16.0 0.00 0.31 0.04 68 1011.9
20200710154918 79 267 10.0 17.0 0.00 0.31 0.04 71 1011.8
20200710154430 78 288 10.0 17.0 0.00 0.31 0.04 68 1011.7
20200710153926 78 302 10.0 16.0 0.00 0.31 0.04 71 1011.7
20200710153435 78 286 8.0 18.0 0.00 0.31 0.04 74 1011.8
20200710152925 78 278 9.0 18.0 0.00 0.31 0.04 74 1011.9
20200710152438 78 255 7.0 19.0 0.00 0.31 0.04 76 1011.8
20200710151934 78 273 11.0 19.0 0.00 0.31 0.04 73 1011.8
20200710151425 78 238 8.0 13.0 0.00 0.31 0.04 79 1011.9
20200710150923 77 273 8.0 13.0 0.00 0.31 0.04 80 1012.0
20200710150430 77 249 8.0 13.0 0.00 0.31 0.04 80 1012.0
20200710145927 77 261 6.0 13.0 0.00 0.31 0.04 82 1011.9
20200710145437 77 255 7.0 12.0 0.00 0.31 0.04 81 1011.9
20200710144933 77 272 6.0 12.0 0.00 0.31 0.04 84 1012.1
20200710144423 76 263 9.0 12.0 0.00 0.31 0.04 80 1012.0
20200710143925 76 245 7.0 11.0 0.00 0.31 0.04 83 1011.9
20200710143430 76 256 5.0 12.0 0.00 0.31 0.04 84 1012.0
20200710142925 76 281 9.0 13.0 0.00 0.31 0.04 83 1012.1
20200710142434 76 248 7.0 13.0 0.00 0.31 0.04 84 1012.1
20200710141929 75 281 7.0 13.0 0.00 0.31 0.04 84 1011.9
20200710141423 75 293 7.0 13.0 0.00 0.31 0.04 85 1012.0
20200710140921 75 263 8.0 13.0 0.00 0.31 0.04 85 1011.9
20200710140431 74 282 7.0 13.0 0.00 0.31 0.04 85 1011.7
20200710135925 74 263 8.0 13.0 0.00 0.31 0.04 86 1011.7
20200710135437 74 297 8.0 11.0 0.00 0.31 0.04 86 1011.6
20200710134934 73 306 7.0 12.0 0.00 0.31 0.04 87 1011.6
20200710134425 73 274 8.0 12.0 0.00 0.31 0.04 87 1011.7
20200710133935 73 277 9.0 12.0 0.00 0.31 0.04 86 1011.6
20200710133425 73 280 7.0 12.0 0.00 0.31 0.04 87 1011.5
20200710132938 73 295 8.0 13.0 0.00 0.31 0.04 87 1011.5
20200710132423 72 284 7.0 14.0 0.00 0.31 0.04 87 1011.5
20200710131939 72 274 8.0 14.0 0.00 0.31 0.04 87 1011.6
20200710131430 72 260 7.0 11.0 0.00 0.31 0.04 88 1011.6
20200710130927 72 281 8.0 13.0 0.00 0.31 0.04 87 1011.4
20200710130433 71 270 8.0 13.0 0.00 0.31 0.04 87 1011.6
20200710125926 71 269 6.0 9.0 0.00 0.31 0.04 88 1011.8
20200710125421 71 299 6.0 9.0 0.00 0.31 0.04 88 1011.7
20200710124937 71 314 5.0 9.0 0.00 0.31 0.04 89 1011.8
20200710124428 70 291 6.0 9.0 0.00 0.31 0.04 89 1011.9
20200710123925 70 261 6.0 10.0 0.00 0.31 0.04 89 1011.7
20200710123437 70 277 5.0 10.0 0.00 0.31 0.04 90 1011.8
20200710122933 69 281 5.0 9.0 0.00 0.31 0.04 90 1011.7
20200710122424 69 283 5.0 11.0 0.00 0.31 0.04 90 1011.7
20200710121938 69 259 7.0 10.0 0.00 0.31 0.04 90 1011.7
20200710121428 69 271 6.0 10.0 0.00 0.31 0.04 91 1011.7
20200710120923 69 289 6.0 11.0 0.00 0.31 0.04 91 1011.7
20200710120431 69 319 7.0 12.0 0.00 0.31 0.04 92 1011.6
20200710115923 68 275 8.0 12.0 0.00 0.31 0.04 91 1011.8
20200710115432 68 284 7.0 10.0 0.00 0.31 0.04 92 1011.7
20200710114932 68 309 6.0 12.0 0.00 0.31 0.04 92 1011.6
20200710114424 68 252 8.0 12.0 0.00 0.31 0.04 92 1011.6
20200710113922 68 279 5.0 13.0 0.00 0.31 0.04 92 1011.6
20200710113432 67 257 7.0 13.0 0.00 0.31 0.04 92 1011.5
20200710112933 67 277 6.0 10.0 0.00 0.31 0.04 92 1011.5
20200710112425 67 254 6.0 10.0 0.00 0.31 0.04 92 1011.4
20200710111925 67 265 6.0 10.0 0.01 0.31 0.04 92 1011.5
20200710111435 68 266 7.0 12.0 0.01 0.31 0.04 92 1011.5
20200710110933 68 286 7.0 12.0 0.01 0.31 0.04 92 1011.6
20200710110428 68 273 6.0 11.0 0.01 0.31 0.04 92 1011.4
20200710105924 68 286 6.0 11.0 0.01 0.31 0.04 92 1011.3
20200710105437 68 257 7.0 11.0 0.01 0.31 0.04 91 1011.2
20200710104935 68 273 6.0 11.0 0.01 0.31 0.04 91 1011.1
20200710104427 68 284 7.0 11.0 0.01 0.31 0.04 91 1011.1
20200710103921 68 271 5.0 12.0 0.01 0.31 0.04 90 1010.9
20200710103432 68 272 7.0 14.0 0.01 0.31 0.04 90 1010.7
20200710102928 68 300 9.0 14.0 0.01 0.31 0.04 91 1010.8
20200710102435 68 10 6.0 17.0 0.01 0.31 0.04 91 1010.3
20200710101934 68 296 10.0 17.0 0.00 0.30 0.03 91 1010.4
20200710101424 68 300 7.0 15.0 0.00 0.30 0.03 91 1010.3
20200710100920 68 305 9.0 15.0 0.00 0.30 0.03 91 1010.2
20200710100433 68 294 10.0 16.0 0.00 0.30 0.03 92 1010.0
20200710095930 68 285 9.0 17.0 0.00 0.30 0.03 92 1010.2
20200710095441 68 289 8.0 13.0 0.00 0.30 0.03 93 1010.2
20200710094933 68 263 7.0 12.0 0.00 0.30 0.03 93 1010.1
20200710094427 69 273 6.0 12.0 0.00 0.30 0.03 93 1009.9
20200710093922 69 300 7.0 12.0 0.00 0.30 0.03 93 1009.9
20200710093433 69 288 7.0 13.0 0.00 0.30 0.03 93 1009.8
20200710092930 69 278 6.0 13.0 0.00 0.30 0.03 93 1009.7
20200710092422 69 259 5.0 11.0 0.01 0.30 0.03 93 1009.6
20200710091937 69 261 6.0 13.0 0.01 0.30 0.03 93 1009.8
20200710091429 69 262 6.0 13.0 0.01 0.30 0.03 93 1009.7
20200710090925 69 254 7.0 10.0 0.01 0.30 0.03 93 1009.7
20200710090437 69 289 5.0 10.0 0.01 0.30 0.03 93 1009.4
20200710085928 69 287 6.0 14.0 0.01 0.30 0.03 94 1009.2
20200710085440 69 302 5.0 14.0 0.01 0.30 0.03 94 1009.2
20200710084933 69 280 7.0 14.0 0.01 0.30 0.03 94 1009.0
20200710084421 69 302 8.0 14.0 0.01 0.30 0.03 93 1008.8
20200710083918 69 294 6.0 10.0 0.01 0.30 0.03 94 1008.9
20200710083433 69 286 5.0 12.0 0.01 0.30 0.03 94 1008.8
20200710082929 69 281 5.0 12.0 0.01 0.30 0.03 94 1008.9
20200710082439 69 277 7.0 12.0 0.00 0.29 0.02 94 1009.0
20200710081935 68 281 7.0 11.0 0.00 0.29 0.02 94 1009.0
20200710081425 68 260 5.0 12.0 0.00 0.29 0.02 94 1009.1
20200710080925 68 281 8.0 12.0 0.00 0.29 0.02 94 1009.0
20200710080437 68 290 7.0 10.0 0.00 0.29 0.02 94 1009.0
20200710075930 68 288 7.0 11.0 0.00 0.29 0.02 94 1008.9
20200710075425 68 307 6.0 9.0 0.00 0.29 0.02 94 1008.8
20200710074940 68 289 6.0 9.0 0.00 0.29 0.02 94 1008.8
20200710074429 68 298 5.0 9.0 0.00 0.29 0.02 94 1008.8
20200710073926 68 321 4.0 11.0 0.00 0.29 0.02 94 1008.8
20200710073418 68 309 5.0 11.0 0.01 0.29 0.02 94 1008.8
20200710072939 69 270 4.0 9.0 0.01 0.29 0.02 94 1008.9
20200710072429 69 315 5.0 10.0 0.01 0.29 0.02 94 1008.9
20200710071926 69 291 6.0 10.0 0.01 0.29 0.02 94 1008.9
20200710071437 69 273 6.0 10.0 0.01 0.29 0.02 94 1009.0
20200710070931 69 282 6.0 10.0 0.01 0.29 0.02 94 1009.1
20200710070422 69 265 5.0 9.0 0.01 0.29 0.02 94 1009.1
20200710065920 69 279 4.0 9.0 0.01 0.29 0.02 94 1009.1
20200710065434 69 290 5.0 9.0 0.01 0.29 0.02 94 1009.1
20200710064930 69 313 7.0 10.0 0.01 0.29 0.02 94 1009.1
20200710064425 69 273 5.0 10.0 0.01 0.29 0.02 94 1009.1
20200710063926 69 281 5.0 9.0 0.02 0.29 0.02 94 1009.2
20200710063437 69 285 5.0 9.0 0.01 0.28 0.01 94 1009.1
20200710062931 69 290 6.0 9.0 0.01 0.28 0.01 94 1009.2
20200710062425 69 264 6.0 9.0 0.01 0.28 0.01 94 1009.2
20200710061923 69 277 6.0 9.0 0.01 0.28 0.01 94 1009.1
20200710061432 69 257 6.0 9.0 0.01 0.28 0.01 94 1009.0
20200710060930 69 255 5.0 7.0 0.01 0.28 0.01 94 1009.1
20200710060425 69 251 3.0 5.0 0.01 0.28 0.01 94 1009.1
20200710055924 69 252 3.0 6.0 0.01 0.28 0.01 94 1009.1
20200710055437 69 259 4.0 6.0 0.01 0.28 0.01 94 1009.2
20200710054935 69 250 3.0 5.0 0.01 0.28 0.01 94 1009.1
20200710054430 69 257 3.0 5.0 0.01 0.28 0.01 94 1009.1
20200710053925 69 287 2.0 3.0 0.00 0.27 0.00 93 1009.1
20200710053418 69 313 2.0 2.0 0.00 0.27 0.00 93 1009.1
20200710052939 69 313 1.0 2.0 0.00 0.27 0.00 93 1009.0
20200710052431 69 313 1.0 2.0 0.00 0.27 0.00 93 1008.9
20200710051927 69 313 0.0 2.0 0.00 0.27 0.00 93 1008.8
20200710051426 69 313 1.0 2.0 0.00 0.27 0.00 93 1008.8
20200710050922 69 313 0.0 3.0 0.00 0.27 0.00 93 1008.6
20200710050433 69 313 2.0 4.0 0.00 0.27 0.00 93 1008.6
20200710045931 69 313 2.0 5.0 0.00 0.27 0.27 93 1008.5
20200710045425 69 35 2.0 3.0 0.00 0.27 0.27 93 1008.4
20200710044939 69 35 2.0 3.0 0.00 0.27 0.27 93 1008.3
20200710044431 69 35 2.0 3.0 0.00 0.27 0.27 93 1008.4
20200710043925 69 36 2.0 3.0 0.00 0.27 0.27 93 1008.4
20200710043437 69 63 2.0 3.0 0.00 0.27 0.27 93 1008.2
20200710042930 69 63 2.0 4.0 0.00 0.27 0.27 93 1008.2
20200710042421 69 63 2.0 4.0 0.00 0.27 0.27 93 1008.3
20200710041934 69 51 2.0 3.0 0.00 0.27 0.27 93 1008.2
20200710041429 69 51 2.0 4.0 0.00 0.27 0.27 93 1008.3
20200710040925 69 51 2.0 4.0 0.00 0.27 0.27 93 1008.4
20200710040435 69 25 3.0 5.0 0.00 0.27 0.27 93 1008.4
20200710035932 69 9 3.0 6.0 0.00 0.27 0.27 93 1008.4
20200710035422 69 28 3.0 6.0 0.00 0.27 0.27 93 1008.5
20200710034937 69 13 4.0 6.0 0.00 0.27 0.27 93 1008.4
20200710034426 69 35 3.0 6.0 0.00 0.27 0.27 93 1008.6
20200710033924 69 47 4.0 6.0 0.00 0.27 0.27 93 1008.4
20200710033434 69 28 3.0 5.0 0.00 0.27 0.27 93 1008.4
20200710032927 69 50 3.0 5.0 0.00 0.27 0.27 93 1008.4
20200710032437 69 65 4.0 5.0 0.01 0.27 0.27 93 1008.2
20200710031932 69 14 3.0 8.0 0.03 0.27 0.27 93 1008.1
20200710031421 69 35 4.0 8.0 0.03 0.27 0.27 93 1007.8
20200710030941 69 16 4.0 8.0 0.03 0.27 0.27 93 1007.7
20200710030432 69 36 6.0 11.0 0.03 0.27 0.27 93 1007.6
20200710025922 69 46 8.0 11.0 0.04 0.27 0.27 93 1007.6
20200710025433 69 35 6.0 9.0 0.04 0.27 0.27 93 1007.7
20200710024930 69 29 6.0 9.0 0.04 0.27 0.27 93 1007.8
20200710024422 69 61 5.0 9.0 0.04 0.27 0.27 93 1008.0
20200710023935 69 46 5.0 9.0 0.06 0.27 0.27 93 1008.1
20200710023426 69 67 5.0 8.0 0.06 0.27 0.27 93 1008.3
20200710022922 69 62 5.0 11.0 0.10 0.27 0.27 93 1008.2
20200710022433 69 49 7.0 11.0 0.10 0.26 0.26 93 1008.0
20200710021930 69 36 7.0 10.0 0.09 0.24 0.24 93 1008.2
20200710021425 69 41 6.0 12.0 0.10 0.24 0.24 93 1008.3
20200710020921 69 43 8.0 12.0 0.12 0.24 0.24 92 1008.3
20200710020432 69 46 6.0 15.0 0.13 0.24 0.24 92 1008.5
20200710015933 69 34 8.0 18.0 0.12 0.23 0.23 92 1008.3
20200710015425 69 11 9.0 18.0 0.23 0.23 0.23 93 1008.4
20200710014924 69 355 6.0 10.0 0.23 0.23 0.23 93 1008.6
20200710014434 69 17 5.0 8.0 0.23 0.23 0.23 93 1008.9
20200710013933 69 340 4.0 9.0 0.21 0.21 0.21 93 1009.1
20200710013424 69 5 3.0 10.0 0.21 0.21 0.21 92 1009.4
20200710012937 69 281 4.0 13.0 0.17 0.17 0.17 92 1009.5
20200710012426 69 325 8.0 14.0 0.16 0.16 0.16 92 1009.3
20200710011939 69 327 10.0 14.0 0.15 0.15 0.15 92 1009.4
20200710011428 69 320 8.0 19.0 0.14 0.14 0.14 92 1009.5
20200710010923 69 280 8.0 19.0 0.12 0.12 0.12 91 1009.5
20200710010435 70 307 10.0 14.0 0.11 0.11 0.11 91 1009.3
20200710005931 70 292 8.0 15.0 0.11 0.11 0.11 89 1009.8
20200710005425 71 259 10.0 17.0 0.00 0.00 0.00 88 1010.0
20200710004939 71 299 9.0 21.0 0.00 0.00 0.00 86 1009.1
20200710004431 72 313 15.0 22.0 0.00 0.00 0.00 84 1008.7
20200710003924 73 282 11.0 17.0 0.00 0.00 0.00 84 1008.9
20200710003434 73 248 9.0 22.0 0.00 0.00 0.00 83 1008.5
20200710002931 73 296 14.0 30.0 0.00 0.00 0.00 83 1008.0
20200710002426 73 292 19.0 32.0 0.00 0.00 0.00 81 1007.5
20200710001923 75 297 21.0 32.0 0.00 0.00 0.00 77 1007.8
20200710001434 81 292 17.0 28.0 0.00 0.00 0.00 67 1007.8
20200710000932 84 210 5.0 9.0 0.00 0.00 0.00 71 1006.9
20200710000442 85 189 5.0 9.0 0.00 0.00 0.00 71 1006.7
20200709235936 85 202 5.0 9.0 0.00 0.00 0.00 71 1006.5
20200709235425 85 180 4.0 9.0 0.00 0.00 0.00 72 1006.4
20200709234921 85 188 4.0 9.0 0.00 0.00 0.00 72 1006.1
20200709234435 85 196 4.0 7.0 0.00 0.00 0.00 72 1006.2
20200709233931 85 192 3.0 8.0 0.00 0.00 0.00 72 1006.3
20200709233421 85 181 5.0 8.0 0.00 0.00 0.00 71 1006.5
20200709232935 85 198 4.0 10.0 0.00 0.00 0.00 71 1006.5
20200709232425 86 192 4.0 10.0 0.00 0.00 0.00 71 1006.5
20200709231921 86 182 4.0 9.0 0.00 0.00 0.00 70 1006.3
20200709231431 86 182 4.0 8.0 0.00 0.00 0.00 70 1006.3
20200709230931 86 169 4.0 8.0 0.00 0.00 0.00 70 1006.4
20200709230440 86 216 4.0 8.0 0.00 0.00 0.00 69 1006.5
20200709225934 86 192 4.0 12.0 0.00 0.00 0.00 69 1006.5
20200709225424 86 186 4.0 12.0 0.00 0.00 0.00 68 1006.5
20200709224923 87 182 3.0 7.0 0.00 0.00 0.00 68 1006.5
20200709224433 87 168 3.0 11.0 0.00 0.00 0.00 67 1006.5
20200709223933 87 183 5.0 11.0 0.00 0.00 0.00 66 1006.6
20200709223425 87 186 5.0 11.0 0.00 0.00 0.00 66 1006.5
20200709222941 87 196 4.0 12.0 0.00 0.00 0.00 66 1006.4
20200709222430 88 197 7.0 12.0 0.00 0.00 0.00 65 1006.5
20200709221924 87 153 5.0 11.0 0.00 0.00 0.00 69 1006.5
20200709221436 87 178 3.0 10.0 0.00 0.00 0.00 69 1006.5
20200709220934 87 188 3.0 9.0 0.00 0.00 0.00 68 1006.7
20200709220424 88 202 2.0 8.0 0.00 0.00 0.00 69 1006.8
20200709215937 89 171 3.0 8.0 0.00 0.00 0.00 66 1006.9
20200709215429 89 155 4.0 10.0 0.00 0.00 0.00 67 1006.7
20200709214927 88 184 3.0 10.0 0.00 0.00 0.00 69 1006.7
20200709214421 87 144 2.0 5.0 0.00 0.00 0.00 70 1006.8
20200709213918 87 169 2.0 7.0 0.00 0.00 0.00 69 1006.8
20200709213431 87 157 3.0 7.0 0.00 0.00 0.00 69 1006.8
20200709212926 87 202 3.0 13.0 0.00 0.00 0.00 69 1007.0
20200709212439 87 186 7.0 13.0 0.00 0.00 0.00 67 1007.2
20200709211933 87 182 5.0 8.0 0.00 0.00 0.00 67 1007.3
20200709211427 87 182 3.0 12.0 0.00 0.00 0.00 66 1007.3
20200709210925 89 207 4.0 12.0 0.00 0.00 0.00 64 1007.5
20200709210434 90 164 7.0 12.0 0.00 0.00 0.00 62 1007.5
20200709205933 90 150 5.0 13.0 0.00 0.00 0.00 63 1007.6
20200709205422 90 175 6.0 11.0 0.00 0.00 0.00 64 1007.5
20200709204919 90 173 3.0 13.0 0.00 0.00 0.00 67 1007.5
20200709204433 89 202 5.0 13.0 0.00 0.00 0.00 66 1007.3
20200709203929 89 125 5.0 13.0 0.00 0.00 0.00 66 1007.4
20200709203438 89 168 4.0 10.0 0.00 0.00 0.00 64 1007.5
20200709202933 89 132 3.0 10.0 0.00 0.00 0.00 66 1007.6
20200709202423 89 167 3.0 10.0 0.00 0.00 0.00 65 1007.7
20200709201921 89 109 4.0 11.0 0.00 0.00 0.00 66 1007.7
20200709201436 89 93 4.0 10.0 0.00 0.00 0.00 68 1007.7
20200709200931 88 189 3.0 10.0 0.00 0.00 0.00 67 1007.9
20200709200439 88 207 3.0 10.0 0.00 0.00 0.00 67 1008.1
20200709195936 89 132 5.0 12.0 0.00 0.00 0.00 63 1008.2
20200709195428 90 113 6.0 12.0 0.00 0.00 0.00 65 1008.1
20200709194923 89 111 6.0 12.0 0.00 0.00 0.00 66 1008.0
20200709194434 90 119 4.0 10.0 0.00 0.00 0.00 66 1008.2
20200709193933 89 171 3.0 14.0 0.00 0.00 0.00 67 1008.1
20200709193424 89 121 8.0 14.0 0.00 0.00 0.00 65 1008.3
20200709192922 89 82 5.0 12.0 0.00 0.00 0.00 67 1008.5
20200709192434 89 144 5.0 12.0 0.00 0.00 0.00 66 1008.6
20200709191931 89 126 5.0 11.0 0.00 0.00 0.00 68 1008.6